Desert Ranger — SVCO2 — position and weather

sailwx.info

Track history (hours):
 
Tides and Currents Weather Stations Pressure Air Temp Water Temp Dewpoint Dewpoint Depression Visibility Wind Speed Wind Dir Waves Ship Positions

Desert Ranger

Last reported at 2018-Feb-12 06:51 UTC. Time now 2018-Feb-22 01:28 UTC.
Position N 14°11' W 061°10'.
Warning: this ship's position is 9 days out of date.

Length 200 m; draft 7.3 m.

Type: Cargo ship. MMSI: 241489000.

Date/timePositionNaut miles runAvg speedWind from/ knotsBaromVisibWave heightAir tempDewpointWater temp
2018-Feb-12 06:51N 14°11' W 061°10'513.3
2018-Feb-12 06:30N 14°14' W 061°06'713.8
2018-Feb-12 06:01N 14°16' W 060°59'714.1
2018-Feb-12 05:31N 14°17' W 060°52'713.4
2018-Feb-12 05:00N 14°18' W 060°45'712.8
2018-Feb-12 04:27N 14°20' W 060°38'612.6
2018-Feb-12 04:00N 14°23' W 060°34'  
2018-Feb-04 08:15N 35°50' W 025°19'312.7
2018-Feb-04 08:00N 35°52' W 025°15'612.9
2018-Feb-04 07:30N 35°55' W 025°08'612.8
2018-Feb-04 07:00N 35°58' W 025°01'613.0
2018-Feb-04 06:30N 36°01' W 024°54'612.9
2018-Feb-04 06:01N 36°04' W 024°47'612.5
2018-Feb-04 05:30N 36°07' W 024°40'612.6
2018-Feb-04 05:00N 36°10' W 024°34'612.6
2018-Feb-04 04:30N 36°13' W 024°27'612.3
2018-Feb-04 04:01N 36°16' W 024°20'611.9
2018-Feb-04 03:30N 36°19' W 024°13'612.3
2018-Feb-04 03:00N 36°22' W 024°07'612.3
2018-Feb-04 02:30N 36°25' W 024°00'612.5
2018-Feb-04 02:00N 36°28' W 023°53'612.4
2018-Feb-04 01:30N 36°31' W 023°47'612.5
2018-Feb-04 01:00N 36°34' W 023°40'612.5
2018-Feb-04 00:30N 36°37' W 023°33'612.7
2018-Feb-04 00:00N 36°40' W 023°26'712.9
2018-Feb-03 23:29N 36°43' W 023°19'612.6
2018-Feb-03 23:00N 36°46' W 023°12'  
Track history (hours):
 
Tides and Currents Weather Stations Pressure Air Temp Water Temp Dewpoint Dewpoint Depression Visibility Wind Speed Wind Dir Waves Ship Positions

Desert Ranger

Last reported at 2018-Feb-12 06:51 UTC. Time now 2018-Feb-22 01:28 UTC.
Position N 14°11' W 061°10'.
Warning: this ship's position is 9 days out of date.

Length 200 m; draft 7.3 m.

Type: Cargo ship. MMSI: 241489000.

Date/timePositionNaut miles runAvg speedWind from/ knotsBaromVisibWave heightAir tempDewpointWater temp
2018-Feb-12 06:51N 14°11' W 061°10'513.3
2018-Feb-12 06:30N 14°14' W 061°06'713.8
2018-Feb-12 06:01N 14°16' W 060°59'714.1
2018-Feb-12 05:31N 14°17' W 060°52'713.4
2018-Feb-12 05:00N 14°18' W 060°45'712.8
2018-Feb-12 04:27N 14°20' W 060°38'612.6
2018-Feb-12 04:00N 14°23' W 060°34'  
2018-Feb-04 08:15N 35°50' W 025°19'312.7
2018-Feb-04 08:00N 35°52' W 025°15'612.9
2018-Feb-04 07:30N 35°55' W 025°08'612.8
2018-Feb-04 07:00N 35°58' W 025°01'613.0
2018-Feb-04 06:30N 36°01' W 024°54'612.9
2018-Feb-04 06:01N 36°04' W 024°47'612.5
2018-Feb-04 05:30N 36°07' W 024°40'612.6
2018-Feb-04 05:00N 36°10' W 024°34'612.6
2018-Feb-04 04:30N 36°13' W 024°27'612.3
2018-Feb-04 04:01N 36°16' W 024°20'611.9
2018-Feb-04 03:30N 36°19' W 024°13'612.3
2018-Feb-04 03:00N 36°22' W 024°07'612.3
2018-Feb-04 02:30N 36°25' W 024°00'612.5
2018-Feb-04 02:00N 36°28' W 023°53'612.4
2018-Feb-04 01:30N 36°31' W 023°47'612.5
2018-Feb-04 01:00N 36°34' W 023°40'612.5
2018-Feb-04 00:30N 36°37' W 023°33'612.7
2018-Feb-04 00:00N 36°40' W 023°26'712.9
2018-Feb-03 23:29N 36°43' W 023°19'612.6
2018-Feb-03 23:00N 36°46' W 023°12'  

Dump ship's entire track history